sensor_id;sensor_type;location;lat;lon;timestamp;P1;durP1;ratioP1;P2;durP2;ratioP2
10910;SDS011;5508;49.150;11.030;2023-02-20T00:01:21;12.43;;;8.63;;
10910;SDS011;5508;49.150;11.030;2023-02-20T00:04:22;14.47;;;7.53;;
10910;SDS011;5508;49.150;11.030;2023-02-20T00:07:23;11.33;;;7.43;;
10910;SDS011;5508;49.150;11.030;2023-02-20T00:10:23;12.27;;;8.63;;
10910;SDS011;5508;49.150;11.030;2023-02-20T00:13:24;13.57;;;8.07;;
10910;SDS011;5508;49.150;11.030;2023-02-20T00:16:25;11.07;;;8.00;;
10910;SDS011;5508;49.150;11.030;2023-02-20T00:19:25;14.40;;;7.90;;
10910;SDS011;5508;49.150;11.030;2023-02-20T00:22:26;10.27;;;7.77;;
10910;SDS011;5508;49.150;11.030;2023-02-20T00:25:27;16.00;;;7.40;;
10910;SDS011;5508;49.150;11.030;2023-02-20T00:28:27;11.97;;;7.20;;
10910;SDS011;5508;49.150;11.030;2023-02-20T00:31:28;11.37;;;7.73;;
10910;SDS011;5508;49.150;11.030;2023-02-20T00:34:29;14.13;;;7.67;;
10910;SDS011;5508;49.150;11.030;2023-02-20T00:37:30;14.03;;;8.13;;
10910;SDS011;5508;49.150;11.030;2023-02-20T00:40:30;12.63;;;7.63;;
10910;SDS011;5508;49.150;11.030;2023-02-20T00:43:31;13.07;;;7.33;;
10910;SDS011;5508;49.150;11.030;2023-02-20T00:46:35;15.67;;;7.33;;
10910;SDS011;5508;49.150;11.030;2023-02-20T00:49:36;11.57;;;7.23;;
10910;SDS011;5508;49.150;11.030;2023-02-20T00:52:36;9.17;;;6.60;;
10910;SDS011;5508;49.150;11.030;2023-02-20T00:55:38;12.83;;;7.47;;
10910;SDS011;5508;49.150;11.030;2023-02-20T00:58:39;11.83;;;7.37;;
10910;SDS011;5508;49.150;11.030;2023-02-20T01:01:39;13.67;;;7.53;;
10910;SDS011;5508;49.150;11.030;2023-02-20T01:04:40;15.47;;;7.33;;
10910;SDS011;5508;49.150;11.030;2023-02-20T01:07:41;10.83;;;7.43;;
10910;SDS011;5508;49.150;11.030;2023-02-20T01:10:41;14.03;;;8.00;;
10910;SDS011;5508;49.150;11.030;2023-02-20T01:13:42;11.23;;;8.07;;
10910;SDS011;5508;49.150;11.030;2023-02-20T01:16:46;12.97;;;8.07;;
10910;SDS011;5508;49.150;11.030;2023-02-20T01:19:48;11.03;;;8.43;;
10910;SDS011;5508;49.150;11.030;2023-02-20T01:22:48;14.57;;;7.87;;
10910;SDS011;5508;49.150;11.030;2023-02-20T01:25:49;12.70;;;8.23;;
10910;SDS011;5508;49.150;11.030;2023-02-20T01:28:50;12.03;;;7.80;;
10910;SDS011;5508;49.150;11.030;2023-02-20T01:31:51;13.20;;;7.80;;
10910;SDS011;5508;49.150;11.030;2023-02-20T01:34:51;11.77;;;7.40;;
10910;SDS011;5508;49.150;11.030;2023-02-20T01:37:52;13.40;;;8.17;;
10910;SDS011;5508;49.150;11.030;2023-02-20T01:40:53;12.77;;;8.30;;
10910;SDS011;5508;49.150;11.030;2023-02-20T01:43:53;16.83;;;9.20;;
10910;SDS011;5508;49.150;11.030;2023-02-20T01:46:55;16.50;;;8.93;;
10910;SDS011;5508;49.150;11.030;2023-02-20T01:49:57;12.90;;;8.13;;
10910;SDS011;5508;49.150;11.030;2023-02-20T01:53:13;11.53;;;8.23;;
10910;SDS011;5508;49.150;11.030;2023-02-20T01:56:16;11.97;;;8.37;;
10910;SDS011;5508;49.150;11.030;2023-02-20T01:59:17;11.93;;;8.20;;
10910;SDS011;5508;49.150;11.030;2023-02-20T02:02:20;16.90;;;8.40;;
10910;SDS011;5508;49.150;11.030;2023-02-20T02:05:23;13.57;;;8.10;;
10910;SDS011;5508;49.150;11.030;2023-02-20T02:08:24;13.77;;;8.07;;
10910;SDS011;5508;49.150;11.030;2023-02-20T02:11:26;12.07;;;8.20;;
10910;SDS011;5508;49.150;11.030;2023-02-20T02:14:27;12.17;;;8.07;;
10910;SDS011;5508;49.150;11.030;2023-02-20T02:31:38;12.77;;;8.00;;
10910;SDS011;5508;49.150;11.030;2023-02-20T02:38:07;13.43;;;8.23;;
10910;SDS011;5508;49.150;11.030;2023-02-20T02:41:25;12.90;;;7.30;;
10910;SDS011;5508;49.150;11.030;2023-02-20T02:45:00;11.23;;;8.47;;
10910;SDS011;5508;49.150;11.030;2023-02-20T02:48:13;16.13;;;7.73;;
10910;SDS011;5508;49.150;11.030;2023-02-20T02:51:23;14.70;;;7.40;;
10910;SDS011;5508;49.150;11.030;2023-02-20T02:54:27;14.87;;;8.10;;
10910;SDS011;5508;49.150;11.030;2023-02-20T02:57:28;12.13;;;8.57;;
10910;SDS011;5508;49.150;11.030;2023-02-20T03:03:48;10.80;;;7.17;;
10910;SDS011;5508;49.150;11.030;2023-02-20T03:06:51;9.57;;;7.07;;
10910;SDS011;5508;49.150;11.030;2023-02-20T03:09:57;12.00;;;7.47;;
10910;SDS011;5508;49.150;11.030;2023-02-20T03:13:01;13.23;;;8.13;;
10910;SDS011;5508;49.150;11.030;2023-02-20T03:16:04;11.50;;;7.67;;
10910;SDS011;5508;49.150;11.030;2023-02-20T03:19:06;9.83;;;6.83;;
10910;SDS011;5508;49.150;11.030;2023-02-20T03:25:59;13.97;;;8.00;;
10910;SDS011;5508;49.150;11.030;2023-02-20T03:28:56;15.27;;;8.00;;
10910;SDS011;5508;49.150;11.030;2023-02-20T03:32:03;13.00;;;7.20;;
10910;SDS011;5508;49.150;11.030;2023-02-20T03:35:24;14.60;;;8.33;;
10910;SDS011;5508;49.150;11.030;2023-02-20T03:38:50;12.10;;;7.57;;
10910;SDS011;5508;49.150;11.030;2023-02-20T03:42:17;14.80;;;8.40;;
10910;SDS011;5508;49.150;11.030;2023-02-20T03:45:38;13.50;;;7.87;;
10910;SDS011;5508;49.150;11.030;2023-02-20T03:48:45;14.37;;;7.63;;
10910;SDS011;5508;49.150;11.030;2023-02-20T03:52:08;10.30;;;7.40;;
10910;SDS011;5508;49.150;11.030;2023-02-20T03:55:09;14.87;;;8.43;;
10910;SDS011;5508;49.150;11.030;2023-02-20T03:58:11;10.83;;;7.20;;
10910;SDS011;5508;49.150;11.030;2023-02-20T04:01:13;13.83;;;7.70;;
10910;SDS011;5508;49.150;11.030;2023-02-20T04:04:18;11.97;;;7.80;;
10910;SDS011;5508;49.150;11.030;2023-02-20T04:07:23;10.47;;;7.67;;
10910;SDS011;5508;49.150;11.030;2023-02-20T04:10:33;10.57;;;7.00;;
10910;SDS011;5508;49.150;11.030;2023-02-20T04:13:39;11.63;;;8.20;;
10910;SDS011;5508;49.150;11.030;2023-02-20T04:16:42;10.67;;;7.40;;
10910;SDS011;5508;49.150;11.030;2023-02-20T04:20:04;10.67;;;7.07;;
10910;SDS011;5508;49.150;11.030;2023-02-20T04:23:09;9.97;;;7.77;;
10910;SDS011;5508;49.150;11.030;2023-02-20T04:26:18;11.30;;;7.27;;
10910;SDS011;5508;49.150;11.030;2023-02-20T04:29:20;15.80;;;7.63;;
10910;SDS011;5508;49.150;11.030;2023-02-20T04:32:20;11.57;;;8.17;;
10910;SDS011;5508;49.150;11.030;2023-02-20T04:35:21;11.50;;;7.87;;
10910;SDS011;5508;49.150;11.030;2023-02-20T04:38:22;9.63;;;6.93;;
10910;SDS011;5508;49.150;11.030;2023-02-20T04:41:23;10.43;;;7.03;;
10910;SDS011;5508;49.150;11.030;2023-02-20T04:44:24;11.87;;;7.43;;
10910;SDS011;5508;49.150;11.030;2023-02-20T04:47:30;10.33;;;6.73;;
10910;SDS011;5508;49.150;11.030;2023-02-20T04:50:31;11.67;;;7.50;;
10910;SDS011;5508;49.150;11.030;2023-02-20T04:53:33;11.50;;;7.53;;
10910;SDS011;5508;49.150;11.030;2023-02-20T04:56:34;9.30;;;6.83;;
10910;SDS011;5508;49.150;11.030;2023-02-20T04:59:34;11.73;;;8.00;;
10910;SDS011;5508;49.150;11.030;2023-02-20T05:02:38;12.63;;;7.60;;
10910;SDS011;5508;49.150;11.030;2023-02-20T05:05:39;12.20;;;7.40;;
10910;SDS011;5508;49.150;11.030;2023-02-20T05:08:40;9.57;;;6.97;;
10910;SDS011;5508;49.150;11.030;2023-02-20T05:11:40;9.93;;;7.23;;
10910;SDS011;5508;49.150;11.030;2023-02-20T05:14:41;14.47;;;7.53;;
10910;SDS011;5508;49.150;11.030;2023-02-20T05:17:42;9.37;;;8.10;;
10910;SDS011;5508;49.150;11.030;2023-02-20T05:20:42;13.53;;;7.70;;
10910;SDS011;5508;49.150;11.030;2023-02-20T05:24:01;13.43;;;8.07;;
10910;SDS011;5508;49.150;11.030;2023-02-20T05:27:02;12.57;;;8.73;;
10910;SDS011;5508;49.150;11.030;2023-02-20T05:30:03;14.73;;;8.00;;
10910;SDS011;5508;49.150;11.030;2023-02-20T05:33:04;11.23;;;8.10;;
10910;SDS011;5508;49.150;11.030;2023-02-20T05:36:05;12.43;;;7.77;;
10910;SDS011;5508;49.150;11.030;2023-02-20T05:39:06;12.20;;;9.53;;
10910;SDS011;5508;49.150;11.030;2023-02-20T05:42:06;15.53;;;8.33;;
10910;SDS011;5508;49.150;11.030;2023-02-20T05:45:08;11.20;;;7.50;;
10910;SDS011;5508;49.150;11.030;2023-02-20T05:48:10;12.90;;;7.57;;
10910;SDS011;5508;49.150;11.030;2023-02-20T05:51:18;12.50;;;8.90;;
10910;SDS011;5508;49.150;11.030;2023-02-20T05:54:20;14.70;;;10.70;;
10910;SDS011;5508;49.150;11.030;2023-02-20T05:57:20;11.73;;;7.97;;
10910;SDS011;5508;49.150;11.030;2023-02-20T06:00:21;19.83;;;13.90;;
10910;SDS011;5508;49.150;11.030;2023-02-20T06:03:22;11.23;;;8.20;;
10910;SDS011;5508;49.150;11.030;2023-02-20T06:06:23;12.77;;;8.43;;
10910;SDS011;5508;49.150;11.030;2023-02-20T06:09:30;13.13;;;8.00;;
10910;SDS011;5508;49.150;11.030;2023-02-20T06:12:30;9.33;;;7.17;;
10910;SDS011;5508;49.150;11.030;2023-02-20T06:15:31;12.00;;;7.47;;
10910;SDS011;5508;49.150;11.030;2023-02-20T06:18:32;18.87;;;12.40;;
10910;SDS011;5508;49.150;11.030;2023-02-20T06:21:32;12.97;;;7.63;;
10910;SDS011;5508;49.150;11.030;2023-02-20T06:24:34;17.87;;;9.07;;
10910;SDS011;5508;49.150;11.030;2023-02-20T06:27:37;11.13;;;7.17;;
10910;SDS011;5508;49.150;11.030;2023-02-20T06:30:38;12.97;;;7.57;;
10910;SDS011;5508;49.150;11.030;2023-02-20T06:33:39;12.37;;;8.27;;
10910;SDS011;5508;49.150;11.030;2023-02-20T06:36:39;13.17;;;8.50;;
10910;SDS011;5508;49.150;11.030;2023-02-20T06:39:41;12.07;;;7.93;;
10910;SDS011;5508;49.150;11.030;2023-02-20T06:42:42;13.67;;;7.40;;
10910;SDS011;5508;49.150;11.030;2023-02-20T06:45:42;10.70;;;6.03;;
10910;SDS011;5508;49.150;11.030;2023-02-20T06:48:47;12.60;;;7.10;;
10910;SDS011;5508;49.150;11.030;2023-02-20T06:51:51;11.00;;;5.90;;
10910;SDS011;5508;49.150;11.030;2023-02-20T06:54:53;10.90;;;7.63;;
10910;SDS011;5508;49.150;11.030;2023-02-20T06:57:54;8.30;;;5.97;;
10910;SDS011;5508;49.150;11.030;2023-02-20T07:00:54;13.63;;;6.30;;
10910;SDS011;5508;49.150;11.030;2023-02-20T07:03:56;15.13;;;7.90;;
10910;SDS011;5508;49.150;11.030;2023-02-20T07:06:58;9.40;;;5.97;;
10910;SDS011;5508;49.150;11.030;2023-02-20T07:10:00;8.67;;;5.80;;
10910;SDS011;5508;49.150;11.030;2023-02-20T07:13:01;11.30;;;5.70;;
10910;SDS011;5508;49.150;11.030;2023-02-20T07:16:05;10.70;;;5.67;;
10910;SDS011;5508;49.150;11.030;2023-02-20T07:19:06;11.57;;;6.47;;
10910;SDS011;5508;49.150;11.030;2023-02-20T07:22:06;6.77;;;5.20;;
10910;SDS011;5508;49.150;11.030;2023-02-20T07:25:07;7.90;;;5.13;;
10910;SDS011;5508;49.150;11.030;2023-02-20T07:28:07;8.13;;;5.43;;
10910;SDS011;5508;49.150;11.030;2023-02-20T07:31:08;8.73;;;5.53;;
10910;SDS011;5508;49.150;11.030;2023-02-20T07:34:09;10.47;;;6.10;;
10910;SDS011;5508;49.150;11.030;2023-02-20T07:37:09;7.70;;;5.10;;
10910;SDS011;5508;49.150;11.030;2023-02-20T07:40:11;6.77;;;5.03;;
10910;SDS011;5508;49.150;11.030;2023-02-20T07:43:12;8.97;;;4.60;;
10910;SDS011;5508;49.150;11.030;2023-02-20T07:46:12;8.53;;;6.23;;
10910;SDS011;5508;49.150;11.030;2023-02-20T07:49:13;7.90;;;5.33;;
10910;SDS011;5508;49.150;11.030;2023-02-20T07:52:13;7.30;;;3.80;;
10910;SDS011;5508;49.150;11.030;2023-02-20T07:55:14;7.07;;;4.23;;
10910;SDS011;5508;49.150;11.030;2023-02-20T07:58:16;7.17;;;4.17;;
10910;SDS011;5508;49.150;11.030;2023-02-20T08:01:17;8.77;;;5.40;;
10910;SDS011;5508;49.150;11.030;2023-02-20T08:04:18;9.30;;;5.73;;
10910;SDS011;5508;49.150;11.030;2023-02-20T08:07:18;6.30;;;4.37;;
10910;SDS011;5508;49.150;11.030;2023-02-20T08:10:20;5.43;;;4.03;;
10910;SDS011;5508;49.150;11.030;2023-02-20T08:13:23;10.67;;;4.37;;
10910;SDS011;5508;49.150;11.030;2023-02-20T08:16:24;12.23;;;6.97;;
10910;SDS011;5508;49.150;11.030;2023-02-20T08:19:25;12.97;;;6.70;;
10910;SDS011;5508;49.150;11.030;2023-02-20T08:22:26;6.50;;;4.27;;
10910;SDS011;5508;49.150;11.030;2023-02-20T08:25:27;8.23;;;4.30;;
10910;SDS011;5508;49.150;11.030;2023-02-20T08:28:27;6.03;;;4.10;;
10910;SDS011;5508;49.150;11.030;2023-02-20T08:31:28;7.40;;;3.93;;
10910;SDS011;5508;49.150;11.030;2023-02-20T08:34:28;9.57;;;3.73;;
10910;SDS011;5508;49.150;11.030;2023-02-20T08:37:29;7.40;;;3.70;;
10910;SDS011;5508;49.150;11.030;2023-02-20T08:40:29;10.13;;;6.13;;
10910;SDS011;5508;49.150;11.030;2023-02-20T08:43:30;8.70;;;4.63;;
10910;SDS011;5508;49.150;11.030;2023-02-20T08:46:31;11.60;;;6.30;;
10910;SDS011;5508;49.150;11.030;2023-02-20T08:49:31;9.27;;;4.33;;
10910;SDS011;5508;49.150;11.030;2023-02-20T08:52:32;7.10;;;3.70;;
10910;SDS011;5508;49.150;11.030;2023-02-20T08:55:33;8.73;;;3.67;;
10910;SDS011;5508;49.150;11.030;2023-02-20T08:58:34;7.27;;;4.23;;
10910;SDS011;5508;49.150;11.030;2023-02-20T09:01:34;8.37;;;4.10;;
10910;SDS011;5508;49.150;11.030;2023-02-20T09:04:35;5.47;;;3.67;;
10910;SDS011;5508;49.150;11.030;2023-02-20T09:07:36;6.53;;;4.03;;
10910;SDS011;5508;49.150;11.030;2023-02-20T09:10:36;5.90;;;4.57;;
10910;SDS011;5508;49.150;11.030;2023-02-20T09:13:40;5.40;;;3.37;;
10910;SDS011;5508;49.150;11.030;2023-02-20T09:16:42;4.87;;;3.17;;
10910;SDS011;5508;49.150;11.030;2023-02-20T09:19:43;4.73;;;3.20;;
10910;SDS011;5508;49.150;11.030;2023-02-20T09:22:43;7.17;;;3.97;;
10910;SDS011;5508;49.150;11.030;2023-02-20T09:25:44;5.57;;;3.43;;
10910;SDS011;5508;49.150;11.030;2023-02-20T09:28:45;7.73;;;3.40;;
10910;SDS011;5508;49.150;11.030;2023-02-20T09:31:45;5.73;;;2.93;;
10910;SDS011;5508;49.150;11.030;2023-02-20T09:34:46;6.27;;;3.30;;
10910;SDS011;5508;49.150;11.030;2023-02-20T09:37:46;6.13;;;3.50;;
10910;SDS011;5508;49.150;11.030;2023-02-20T09:40:48;5.00;;;3.03;;
10910;SDS011;5508;49.150;11.030;2023-02-20T09:43:55;6.50;;;3.00;;
10910;SDS011;5508;49.150;11.030;2023-02-20T09:47:12;5.93;;;3.00;;
10910;SDS011;5508;49.150;11.030;2023-02-20T09:50:33;4.53;;;3.57;;
10910;SDS011;5508;49.150;11.030;2023-02-20T09:54:06;8.70;;;3.00;;
10910;SDS011;5508;49.150;11.030;2023-02-20T09:57:12;3.23;;;2.83;;
10910;SDS011;5508;49.150;11.030;2023-02-20T10:00:26;6.83;;;3.13;;
10910;SDS011;5508;49.150;11.030;2023-02-20T10:03:32;5.70;;;3.03;;
10910;SDS011;5508;49.150;11.030;2023-02-20T10:06:44;5.53;;;3.43;;
10910;SDS011;5508;49.150;11.030;2023-02-20T10:09:46;4.30;;;3.00;;
10910;SDS011;5508;49.150;11.030;2023-02-20T10:13:09;8.50;;;3.13;;
10910;SDS011;5508;49.150;11.030;2023-02-20T10:16:34;7.73;;;3.43;;
10910;SDS011;5508;49.150;11.030;2023-02-20T10:19:50;5.17;;;2.70;;
10910;SDS011;5508;49.150;11.030;2023-02-20T10:23:04;4.93;;;2.93;;
10910;SDS011;5508;49.150;11.030;2023-02-20T10:26:31;5.50;;;2.73;;
10910;SDS011;5508;49.150;11.030;2023-02-20T10:29:34;3.43;;;2.83;;
10910;SDS011;5508;49.150;11.030;2023-02-20T10:32:43;4.27;;;2.77;;
10910;SDS011;5508;49.150;11.030;2023-02-20T10:35:55;9.40;;;2.70;;
10910;SDS011;5508;49.150;11.030;2023-02-20T10:39:05;6.83;;;2.90;;
10910;SDS011;5508;49.150;11.030;2023-02-20T10:42:15;4.50;;;2.43;;
10910;SDS011;5508;49.150;11.030;2023-02-20T10:45:45;4.13;;;2.27;;
10910;SDS011;5508;49.150;11.030;2023-02-20T10:48:54;5.57;;;2.47;;
10910;SDS011;5508;49.150;11.030;2023-02-20T10:51:58;4.87;;;2.27;;
10910;SDS011;5508;49.150;11.030;2023-02-20T10:55:07;4.53;;;2.40;;
10910;SDS011;5508;49.150;11.030;2023-02-20T10:58:14;6.10;;;2.73;;
10910;SDS011;5508;49.150;11.030;2023-02-20T11:01:22;5.47;;;3.07;;
10910;SDS011;5508;49.150;11.030;2023-02-20T11:04:33;4.27;;;2.90;;
10910;SDS011;5508;49.150;11.030;2023-02-20T11:07:36;5.23;;;2.47;;
10910;SDS011;5508;49.150;11.030;2023-02-20T11:10:37;5.60;;;2.20;;
10910;SDS011;5508;49.150;11.030;2023-02-20T11:13:37;2.73;;;1.90;;
10910;SDS011;5508;49.150;11.030;2023-02-20T11:16:43;5.37;;;2.13;;
10910;SDS011;5508;49.150;11.030;2023-02-20T11:19:50;3.73;;;2.33;;
10910;SDS011;5508;49.150;11.030;2023-02-20T11:22:53;4.73;;;2.40;;
10910;SDS011;5508;49.150;11.030;2023-02-20T11:25:56;3.03;;;2.00;;
10910;SDS011;5508;49.150;11.030;2023-02-20T11:29:15;6.67;;;2.00;;
10910;SDS011;5508;49.150;11.030;2023-02-20T11:32:29;2.90;;;1.60;;
10910;SDS011;5508;49.150;11.030;2023-02-20T11:35:41;2.67;;;1.77;;
10910;SDS011;5508;49.150;11.030;2023-02-20T11:38:47;3.13;;;1.63;;
10910;SDS011;5508;49.150;11.030;2023-02-20T11:45:14;3.17;;;1.77;;
10910;SDS011;5508;49.150;11.030;2023-02-20T11:48:20;4.13;;;1.90;;
10910;SDS011;5508;49.150;11.030;2023-02-20T11:54:34;2.83;;;1.57;;
10910;SDS011;5508;49.150;11.030;2023-02-20T11:57:36;4.70;;;1.70;;
10910;SDS011;5508;49.150;11.030;2023-02-20T12:00:44;4.27;;;1.60;;
10910;SDS011;5508;49.150;11.030;2023-02-20T12:03:52;4.73;;;1.60;;
10910;SDS011;5508;49.150;11.030;2023-02-20T12:06:55;5.23;;;2.33;;
10910;SDS011;5508;49.150;11.030;2023-02-20T12:10:01;6.00;;;2.10;;
10910;SDS011;5508;49.150;11.030;2023-02-20T12:13:21;1.83;;;1.50;;
10910;SDS011;5508;49.150;11.030;2023-02-20T12:19:43;5.10;;;2.23;;
10910;SDS011;5508;49.150;11.030;2023-02-20T12:45:51;2.30;;;1.50;;
10910;SDS011;5508;49.150;11.030;2023-02-20T12:49:20;8.17;;;1.80;;
10910;SDS011;5508;49.150;11.030;2023-02-20T13:02:12;2.10;;;1.40;;
10910;SDS011;5508;49.150;11.030;2023-02-20T13:05:20;4.70;;;1.40;;
10910;SDS011;5508;49.150;11.030;2023-02-20T13:08:25;5.30;;;1.90;;
10910;SDS011;5508;49.150;11.030;2023-02-20T13:11:38;3.63;;;1.30;;
10910;SDS011;5508;49.150;11.030;2023-02-20T13:14:47;5.43;;;1.33;;
10910;SDS011;5508;49.150;11.030;2023-02-20T13:21:23;4.57;;;1.27;;
10910;SDS011;5508;49.150;11.030;2023-02-20T13:24:28;3.10;;;1.73;;
10910;SDS011;5508;49.150;11.030;2023-02-20T13:27:30;3.27;;;1.37;;
10910;SDS011;5508;49.150;11.030;2023-02-20T13:30:31;3.57;;;1.37;;
10910;SDS011;5508;49.150;11.030;2023-02-20T13:33:33;3.87;;;1.40;;
10910;SDS011;5508;49.150;11.030;2023-02-20T13:36:48;3.10;;;1.30;;
10910;SDS011;5508;49.150;11.030;2023-02-20T13:39:50;2.43;;;1.17;;
10910;SDS011;5508;49.150;11.030;2023-02-20T13:46:15;4.30;;;1.37;;
10910;SDS011;5508;49.150;11.030;2023-02-20T13:52:41;1.60;;;1.23;;
10910;SDS011;5508;49.150;11.030;2023-02-20T13:55:43;3.47;;;1.47;;
10910;SDS011;5508;49.150;11.030;2023-02-20T13:58:44;2.73;;;1.40;;
10910;SDS011;5508;49.150;11.030;2023-02-20T14:05:05;3.27;;;1.60;;
10910;SDS011;5508;49.150;11.030;2023-02-20T14:08:12;2.67;;;1.37;;
10910;SDS011;5508;49.150;11.030;2023-02-20T14:11:32;4.17;;;1.97;;
10910;SDS011;5508;49.150;11.030;2023-02-20T14:14:42;1.97;;;1.30;;
10910;SDS011;5508;49.150;11.030;2023-02-20T14:17:44;3.80;;;2.13;;
10910;SDS011;5508;49.150;11.030;2023-02-20T14:20:45;2.17;;;1.53;;
10910;SDS011;5508;49.150;11.030;2023-02-20T14:23:47;3.03;;;1.47;;
10910;SDS011;5508;49.150;11.030;2023-02-20T14:26:52;1.60;;;1.00;;
10910;SDS011;5508;49.150;11.030;2023-02-20T14:30:03;4.60;;;1.13;;
10910;SDS011;5508;49.150;11.030;2023-02-20T14:33:08;4.57;;;1.50;;
10910;SDS011;5508;49.150;11.030;2023-02-20T14:42:42;3.00;;;1.20;;
10910;SDS011;5508;49.150;11.030;2023-02-20T14:45:44;2.40;;;1.20;;
10910;SDS011;5508;49.150;11.030;2023-02-20T14:48:46;1.50;;;1.10;;
10910;SDS011;5508;49.150;11.030;2023-02-20T14:51:47;2.57;;;0.70;;
10910;SDS011;5508;49.150;11.030;2023-02-20T14:55:00;2.57;;;0.93;;
10910;SDS011;5508;49.150;11.030;2023-02-20T14:58:06;1.47;;;0.80;;
10910;SDS011;5508;49.150;11.030;2023-02-20T15:01:15;6.53;;;1.03;;
10910;SDS011;5508;49.150;11.030;2023-02-20T15:04:35;2.30;;;1.10;;
10910;SDS011;5508;49.150;11.030;2023-02-20T15:07:36;4.70;;;1.23;;
10910;SDS011;5508;49.150;11.030;2023-02-20T15:10:40;3.67;;;1.23;;
10910;SDS011;5508;49.150;11.030;2023-02-20T15:13:43;1.70;;;0.93;;
10910;SDS011;5508;49.150;11.030;2023-02-20T15:16:45;3.20;;;1.07;;
10910;SDS011;5508;49.150;11.030;2023-02-20T15:19:46;1.50;;;1.10;;
10910;SDS011;5508;49.150;11.030;2023-02-20T15:22:47;4.30;;;1.00;;
10910;SDS011;5508;49.150;11.030;2023-02-20T15:25:48;2.80;;;1.17;;
10910;SDS011;5508;49.150;11.030;2023-02-20T15:28:48;1.87;;;1.03;;
10910;SDS011;5508;49.150;11.030;2023-02-20T15:32:21;2.93;;;1.33;;
10910;SDS011;5508;49.150;11.030;2023-02-20T15:35:24;4.70;;;2.50;;
10910;SDS011;5508;49.150;11.030;2023-02-20T15:38:27;3.47;;;1.50;;
10910;SDS011;5508;49.150;11.030;2023-02-20T15:41:30;4.07;;;1.43;;
10910;SDS011;5508;49.150;11.030;2023-02-20T15:44:31;1.90;;;1.30;;
10910;SDS011;5508;49.150;11.030;2023-02-20T15:47:32;4.30;;;1.50;;
10910;SDS011;5508;49.150;11.030;2023-02-20T15:50:32;9.10;;;5.97;;
10910;SDS011;5508;49.150;11.030;2023-02-20T15:53:33;4.60;;;2.50;;
10910;SDS011;5508;49.150;11.030;2023-02-20T15:56:35;4.33;;;3.70;;
10910;SDS011;5508;49.150;11.030;2023-02-20T15:59:36;4.83;;;3.67;;
10910;SDS011;5508;49.150;11.030;2023-02-20T16:02:36;1.90;;;1.50;;
10910;SDS011;5508;49.150;11.030;2023-02-20T16:05:37;3.10;;;1.20;;
10910;SDS011;5508;49.150;11.030;2023-02-20T16:08:37;2.33;;;1.10;;
10910;SDS011;5508;49.150;11.030;2023-02-20T16:11:41;2.67;;;1.17;;
10910;SDS011;5508;49.150;11.030;2023-02-20T16:14:45;4.30;;;1.37;;
10910;SDS011;5508;49.150;11.030;2023-02-20T16:17:47;2.87;;;1.50;;
10910;SDS011;5508;49.150;11.030;2023-02-20T16:20:49;4.17;;;3.03;;
10910;SDS011;5508;49.150;11.030;2023-02-20T16:23:50;2.87;;;1.10;;
10910;SDS011;5508;49.150;11.030;2023-02-20T16:26:52;1.77;;;1.20;;
10910;SDS011;5508;49.150;11.030;2023-02-20T16:29:53;2.83;;;1.20;;
10910;SDS011;5508;49.150;11.030;2023-02-20T16:32:55;3.67;;;1.47;;
10910;SDS011;5508;49.150;11.030;2023-02-20T16:35:56;2.43;;;1.90;;
10910;SDS011;5508;49.150;11.030;2023-02-20T16:38:57;2.60;;;1.77;;
10910;SDS011;5508;49.150;11.030;2023-02-20T16:41:58;3.33;;;1.50;;
10910;SDS011;5508;49.150;11.030;2023-02-20T16:45:00;3.63;;;1.40;;
10910;SDS011;5508;49.150;11.030;2023-02-20T16:48:04;2.23;;;1.60;;
10910;SDS011;5508;49.150;11.030;2023-02-20T16:51:14;4.67;;;2.57;;
10910;SDS011;5508;49.150;11.030;2023-02-20T16:54:18;5.53;;;3.63;;
10910;SDS011;5508;49.150;11.030;2023-02-20T16:57:19;3.43;;;2.40;;
10910;SDS011;5508;49.150;11.030;2023-02-20T17:00:26;7.53;;;3.37;;
10910;SDS011;5508;49.150;11.030;2023-02-20T17:03:28;2.03;;;1.10;;
10910;SDS011;5508;49.150;11.030;2023-02-20T17:06:31;3.30;;;2.10;;
10910;SDS011;5508;49.150;11.030;2023-02-20T17:09:31;3.80;;;1.80;;
10910;SDS011;5508;49.150;11.030;2023-02-20T17:12:32;3.00;;;1.67;;
10910;SDS011;5508;49.150;11.030;2023-02-20T17:15:33;2.77;;;1.77;;
10910;SDS011;5508;49.150;11.030;2023-02-20T17:18:33;5.07;;;2.27;;
10910;SDS011;5508;49.150;11.030;2023-02-20T17:21:34;1.77;;;1.47;;
10910;SDS011;5508;49.150;11.030;2023-02-20T17:24:34;2.20;;;1.60;;
10910;SDS011;5508;49.150;11.030;2023-02-20T17:27:38;2.60;;;1.80;;
10910;SDS011;5508;49.150;11.030;2023-02-20T17:30:38;2.77;;;1.90;;
10910;SDS011;5508;49.150;11.030;2023-02-20T17:33:39;2.73;;;1.53;;
10910;SDS011;5508;49.150;11.030;2023-02-20T17:36:39;5.30;;;1.97;;
10910;SDS011;5508;49.150;11.030;2023-02-20T17:39:46;2.30;;;1.53;;
10910;SDS011;5508;49.150;11.030;2023-02-20T17:42:47;4.53;;;1.30;;
10910;SDS011;5508;49.150;11.030;2023-02-20T17:45:48;1.10;;;1.00;;
10910;SDS011;5508;49.150;11.030;2023-02-20T17:48:48;1.30;;;1.20;;
10910;SDS011;5508;49.150;11.030;2023-02-20T17:51:49;1.73;;;1.03;;
10910;SDS011;5508;49.150;11.030;2023-02-20T17:54:51;3.00;;;1.30;;
10910;SDS011;5508;49.150;11.030;2023-02-20T17:57:54;4.13;;;1.40;;
10910;SDS011;5508;49.150;11.030;2023-02-20T18:00:54;1.80;;;1.30;;
10910;SDS011;5508;49.150;11.030;2023-02-20T18:03:55;2.70;;;1.73;;
10910;SDS011;5508;49.150;11.030;2023-02-20T18:06:56;2.00;;;1.27;;
10910;SDS011;5508;49.150;11.030;2023-02-20T18:09:56;2.70;;;1.20;;
10910;SDS011;5508;49.150;11.030;2023-02-20T18:12:57;3.17;;;1.17;;
10910;SDS011;5508;49.150;11.030;2023-02-20T18:16:04;2.27;;;1.20;;
10910;SDS011;5508;49.150;11.030;2023-02-20T18:19:08;4.20;;;1.50;;
10910;SDS011;5508;49.150;11.030;2023-02-20T18:22:12;2.50;;;1.77;;
10910;SDS011;5508;49.150;11.030;2023-02-20T18:25:16;4.53;;;1.50;;
10910;SDS011;5508;49.150;11.030;2023-02-20T18:28:19;2.23;;;1.10;;
10910;SDS011;5508;49.150;11.030;2023-02-20T18:31:19;2.90;;;1.50;;
10910;SDS011;5508;49.150;11.030;2023-02-20T18:34:21;5.33;;;1.77;;
10910;SDS011;5508;49.150;11.030;2023-02-20T18:37:22;8.93;;;1.80;;
10910;SDS011;5508;49.150;11.030;2023-02-20T18:40:23;4.53;;;2.10;;
10910;SDS011;5508;49.150;11.030;2023-02-20T18:43:24;3.60;;;2.30;;
10910;SDS011;5508;49.150;11.030;2023-02-20T18:49:26;4.83;;;2.60;;
10910;SDS011;5508;49.150;11.030;2023-02-20T18:52:27;2.83;;;1.97;;
10910;SDS011;5508;49.150;11.030;2023-02-20T18:55:27;2.63;;;1.90;;
10910;SDS011;5508;49.150;11.030;2023-02-20T18:58:28;3.93;;;2.20;;
10910;SDS011;5508;49.150;11.030;2023-02-20T19:01:29;6.10;;;2.63;;
10910;SDS011;5508;49.150;11.030;2023-02-20T19:04:30;11.40;;;6.93;;
10910;SDS011;5508;49.150;11.030;2023-02-20T19:07:32;4.83;;;3.00;;
10910;SDS011;5508;49.150;11.030;2023-02-20T19:10:32;4.83;;;2.97;;
10910;SDS011;5508;49.150;11.030;2023-02-20T19:13:33;4.70;;;2.80;;
10910;SDS011;5508;49.150;11.030;2023-02-20T19:16:33;3.50;;;1.93;;
10910;SDS011;5508;49.150;11.030;2023-02-20T19:19:34;4.77;;;1.80;;
10910;SDS011;5508;49.150;11.030;2023-02-20T19:22:35;4.97;;;1.53;;
10910;SDS011;5508;49.150;11.030;2023-02-20T19:25:35;2.50;;;1.90;;
10910;SDS011;5508;49.150;11.030;2023-02-20T19:28:37;5.40;;;3.40;;
10910;SDS011;5508;49.150;11.030;2023-02-20T19:31:38;9.57;;;6.00;;
10910;SDS011;5508;49.150;11.030;2023-02-20T19:34:39;5.60;;;3.30;;
10910;SDS011;5508;49.150;11.030;2023-02-20T19:37:39;4.37;;;2.07;;
10910;SDS011;5508;49.150;11.030;2023-02-20T19:40:40;2.17;;;1.70;;
10910;SDS011;5508;49.150;11.030;2023-02-20T19:43:41;2.70;;;1.97;;
10910;SDS011;5508;49.150;11.030;2023-02-20T19:46:42;3.23;;;1.47;;
10910;SDS011;5508;49.150;11.030;2023-02-20T19:49:44;3.20;;;2.00;;
10910;SDS011;5508;49.150;11.030;2023-02-20T19:52:45;3.23;;;2.30;;